Time;durP1;ratioP1;P1;durP2;ratioP2;P2;SDS_P1;SDS_P2;PMS_P1;PMS_P2;Temp;Humidity;BMP_temperature;BMP_pressure;BME280_temperature;BME280_humidity;BME280_pressure;Samples;Min_cycle;Max_cycle;Signal;HPM_P1;HPM_P2
2024/01/07 00:01:53;;;;;;;13.20;7.60;;;;;;;;;;5111405;28;20249;-75
2024/01/07 00:04:20;;;;;;;10.27;7.00;;;;;;;;;;5111870;28;20202;-77
2024/01/07 00:06:48;;;;;;;7.93;6.47;;;;;;;;;;5111799;28;20194;-76
2024/01/07 00:09:15;;;;;;;10.13;6.50;;;;;;;;;;5111213;28;20193;-76
2024/01/07 00:11:45;;;;;;;8.70;5.87;;;;;;;;;;5111541;28;20287;-76
2024/01/07 00:14:13;;;;;;;7.67;5.33;;;;;;;;;;5111408;28;20202;-77
2024/01/07 00:16:41;;;;;;;8.77;4.47;;;;;;;;;;5112785;28;20617;-76
2024/01/07 00:19:08;;;;;;;7.93;4.80;;;;;;;;;;5115804;28;20320;-76
2024/01/07 00:21:35;;;;;;;11.23;5.50;;;;;;;;;;5115594;28;20196;-76
2024/01/07 00:24:03;;;;;;;7.33;4.87;;;;;;;;;;5115553;28;20206;-77
2024/01/07 00:26:30;;;;;;;8.60;4.97;;;;;;;;;;5115618;28;20239;-76
2024/01/07 00:28:58;;;;;;;8.13;4.67;;;;;;;;;;5115545;28;20240;-77
2024/01/07 00:31:25;;;;;;;10.30;5.43;;;;;;;;;;5116705;27;20643;-76
2024/01/07 00:33:53;;;;;;;10.70;6.17;;;;;;;;;;5115681;28;20195;-76
2024/01/07 00:36:20;;;;;;;7.87;5.10;;;;;;;;;;5115484;28;20233;-76
2024/01/07 00:38:47;;;;;;;14.70;5.80;;;;;;;;;;5115585;28;20253;-75
2024/01/07 00:41:14;;;;;;;21.23;13.53;;;;;;;;;;5115170;28;20295;-76
2024/01/07 00:43:42;;;;;;;31.50;15.87;;;;;;;;;;5115240;28;20662;-76
2024/01/07 00:46:10;;;;;;;47.63;24.67;;;;;;;;;;5115328;28;20233;-75
2024/01/07 00:48:38;;;;;;;58.77;31.53;;;;;;;;;;5115060;28;20194;-76
2024/01/07 00:51:05;;;;;;;30.47;16.30;;;;;;;;;;5114900;28;20191;-77
2024/01/07 00:53:33;;;;;;;12.93;7.17;;;;;;;;;;5115093;28;20197;-77
2024/01/07 00:56:00;;;;;;;23.33;10.17;;;;;;;;;;5115187;28;20200;-76
2024/01/07 00:58:27;;;;;;;27.17;12.30;;;;;;;;;;5123109;27;20194;-76
2024/01/07 01:00:54;;;;;;;20.70;9.90;;;;;;;;;;5124219;27;20260;-75
2024/01/07 01:03:23;;;;;;;17.20;7.90;;;;;;;;;;5126096;27;20695;-76
2024/01/07 01:05:50;;;;;;;17.80;8.13;;;;;;;;;;5127080;27;20217;-76
2024/01/07 01:08:17;;;;;;;13.27;7.73;;;;;;;;;;5119627;27;20280;-76
2024/01/07 01:10:44;;;;;;;13.80;6.83;;;;;;;;;;5133126;27;20235;-76
2024/01/07 01:13:11;;;;;;;10.87;5.47;;;;;;;;;;5125747;27;20228;-76
2024/01/07 01:15:39;;;;;;;9.47;5.37;;;;;;;;;;5119395;27;20649;-76
2024/01/07 01:18:06;;;;;;;10.53;5.37;;;;;;;;;;5127156;27;20194;-75
2024/01/07 01:20:34;;;;;;;9.53;5.57;;;;;;;;;;5126955;27;20234;-76
2024/01/07 01:23:02;;;;;;;7.97;5.33;;;;;;;;;;5118394;27;20248;-76
2024/01/07 01:25:29;;;;;;;10.80;5.80;;;;;;;;;;5135063;27;20661;-76
2024/01/07 01:27:56;;;;;;;10.60;6.20;;;;;;;;;;5125626;27;20194;-75
2024/01/07 01:30:24;;;;;;;10.57;6.40;;;;;;;;;;5126208;27;20299;-76
2024/01/07 01:32:51;;;;;;;10.57;5.77;;;;;;;;;;5134957;27;20285;-76
2024/01/07 01:35:18;;;;;;;12.63;5.70;;;;;;;;;;5135048;27;20299;-77
2024/01/07 01:37:46;;;;;;;9.83;5.20;;;;;;;;;;5113948;28;20284;-76
2024/01/07 01:40:14;;;;;;;9.97;5.67;;;;;;;;;;5114141;28;20324;-76
2024/01/07 01:42:45;;;;;;;14.27;5.73;;;;;;;;;;5114027;28;20194;-76
2024/01/07 01:45:12;;;;;;;10.30;5.23;;;;;;;;;;5114335;28;20578;-76
2024/01/07 01:47:40;;;;;;;12.40;5.57;;;;;;;;;;5113666;28;20764;-75
2024/01/07 01:50:07;;;;;;;10.80;5.53;;;;;;;;;;5113689;28;20832;-76
2024/01/07 01:52:35;;;;;;;7.70;5.23;;;;;;;;;;5113874;28;20243;-76
2024/01/07 01:55:03;;;;;;;11.73;5.23;;;;;;;;;;5113902;28;20192;-77
2024/01/07 01:57:35;;;;;;;13.57;5.33;;;;;;;;;;5113394;28;20190;-76
2024/01/07 02:00:04;;;;;;;10.20;5.13;;;;;;;;;;5113670;28;20328;-76
2024/01/07 02:02:34;;;;;;;10.43;5.07;;;;;;;;;;5113542;28;20194;-75
2024/01/07 02:05:01;;;;;;;11.97;5.40;;;;;;;;;;5113545;28;20198;-76
2024/01/07 02:07:29;;;;;;;11.67;5.57;;;;;;;;;;5113688;28;20203;-76
2024/01/07 02:09:56;;;;;;;10.53;5.10;;;;;;;;;;5113492;28;20201;-76
2024/01/07 02:12:25;;;;;;;11.00;5.60;;;;;;;;;;5112870;28;20277;-76
2024/01/07 02:14:52;;;;;;;8.13;4.70;;;;;;;;;;5113489;28;20232;-77
2024/01/07 02:17:20;;;;;;;9.07;5.23;;;;;;;;;;5113407;28;20288;-75
2024/01/07 02:19:47;;;;;;;11.20;5.43;;;;;;;;;;5113611;28;20324;-76
2024/01/07 02:22:14;;;;;;;9.13;5.00;;;;;;;;;;5113414;28;20293;-76
2024/01/07 02:24:43;;;;;;;10.43;5.40;;;;;;;;;;5113346;28;20284;-77
2024/01/07 02:27:10;;;;;;;8.87;5.37;;;;;;;;;;5112952;28;20288;-76
2024/01/07 02:29:37;;;;;;;8.53;5.30;;;;;;;;;;5112933;28;20243;-76
2024/01/07 02:32:05;;;;;;;10.17;5.57;;;;;;;;;;5112712;28;20229;-76
2024/01/07 02:34:32;;;;;;;9.77;5.43;;;;;;;;;;5112632;28;20289;-76
2024/01/07 02:36:59;;;;;;;8.63;4.97;;;;;;;;;;5113063;28;20321;-76
2024/01/07 02:39:26;;;;;;;9.87;5.83;;;;;;;;;;5112338;28;20253;-76
2024/01/07 02:41:55;;;;;;;8.73;5.63;;;;;;;;;;5112464;28;20287;-76
2024/01/07 02:44:22;;;;;;;10.90;5.83;;;;;;;;;;5113199;28;20600;-75
2024/01/07 02:46:49;;;;;;;8.53;5.80;;;;;;;;;;5112886;28;20741;-75
2024/01/07 02:49:16;;;;;;;9.73;5.60;;;;;;;;;;5113193;28;20194;-76
2024/01/07 02:51:45;;;;;;;8.50;5.43;;;;;;;;;;5112606;28;20225;-76
2024/01/07 02:54:12;;;;;;;9.93;6.00;;;;;;;;;;5112797;28;20200;-76
2024/01/07 02:56:40;;;;;;;11.10;6.00;;;;;;;;;;5099773;28;20234;-75
2024/01/07 02:59:08;;;;;;;10.00;5.30;;;;;;;;;;5112216;28;20291;-76
2024/01/07 03:01:40;;;;;;;10.20;5.20;;;;;;;;;;5112510;28;20196;-77
2024/01/07 03:04:07;;;;;;;8.80;5.50;;;;;;;;;;5112518;28;20198;-76
2024/01/07 03:06:34;;;;;;;10.20;5.17;;;;;;;;;;5112808;28;20200;-76
2024/01/07 03:09:02;;;;;;;14.27;5.40;;;;;;;;;;5112141;28;20667;-76
2024/01/07 03:11:30;;;;;;;10.10;5.00;;;;;;;;;;5112029;28;20198;-76
2024/01/07 03:13:57;;;;;;;13.70;5.10;;;;;;;;;;5111911;28;20208;-76
2024/01/07 03:16:26;;;;;;;10.80;5.20;;;;;;;;;;5111886;28;20637;-76
2024/01/07 03:18:54;;;;;;;8.30;4.77;;;;;;;;;;5107288;27;20277;-75
2024/01/07 03:21:22;;;;;;;10.50;5.13;;;;;;;;;;5100342;28;20231;-76
2024/01/07 03:23:49;;;;;;;9.63;5.17;;;;;;;;;;5091589;28;20622;-77
2024/01/07 03:26:17;;;;;;;10.43;5.23;;;;;;;;;;5091095;28;20653;-77
2024/01/07 03:28:45;;;;;;;9.47;4.87;;;;;;;;;;5091735;28;20296;-76
2024/01/07 03:31:13;;;;;;;9.67;5.20;;;;;;;;;;5091609;28;20289;-75
2024/01/07 03:33:42;;;;;;;10.53;5.43;;;;;;;;;;5092076;28;20209;-76
2024/01/07 03:36:10;;;;;;;8.10;4.60;;;;;;;;;;5112212;28;20289;-77
2024/01/07 03:38:37;;;;;;;8.63;4.90;;;;;;;;;;5111688;28;20196;-75
2024/01/07 03:41:04;;;;;;;9.40;5.00;;;;;;;;;;5111522;28;20272;-76
2024/01/07 03:43:31;;;;;;;9.90;5.33;;;;;;;;;;5112034;28;20194;-76
2024/01/07 03:45:59;;;;;;;12.13;5.20;;;;;;;;;;5112061;28;20283;-76
2024/01/07 03:48:26;;;;;;;8.03;4.53;;;;;;;;;;5111537;28;20272;-76
2024/01/07 03:50:54;;;;;;;9.60;5.10;;;;;;;;;;5112062;28;20286;-76
2024/01/07 03:53:22;;;;;;;10.30;4.80;;;;;;;;;;5111256;28;20629;-76
2024/01/07 03:55:49;;;;;;;8.20;4.67;;;;;;;;;;5111516;28;20630;-76
2024/01/07 03:58:16;;;;;;;8.37;4.40;;;;;;;;;;5111469;28;20765;-76
2024/01/07 04:00:43;;;;;;;8.40;4.47;;;;;;;;;;5111284;28;20790;-76
2024/01/07 04:03:10;;;;;;;6.70;4.80;;;;;;;;;;5111292;28;20289;-76
2024/01/07 04:05:38;;;;;;;9.90;5.00;;;;;;;;;;5111683;28;20196;-76
2024/01/07 04:08:07;;;;;;;11.10;5.60;;;;;;;;;;5111024;28;20200;-76
2024/01/07 04:10:34;;;;;;;8.23;5.43;;;;;;;;;;5111341;28;20226;-76
2024/01/07 04:13:01;;;;;;;11.07;6.23;;;;;;;;;;5111880;28;20217;-75
2024/01/07 04:15:28;;;;;;;13.40;7.40;;;;;;;;;;5111573;28;20284;-76
2024/01/07 04:17:56;;;;;;;13.97;6.43;;;;;;;;;;5110912;28;20288;-76
2024/01/07 04:20:23;;;;;;;9.80;5.70;;;;;;;;;;5111008;28;20314;-76
2024/01/07 04:22:50;;;;;;;13.67;6.00;;;;;;;;;;5111081;28;20197;-76
2024/01/07 04:25:19;;;;;;;8.60;5.90;;;;;;;;;;5110905;28;20709;-76
2024/01/07 04:27:46;;;;;;;8.63;5.03;;;;;;;;;;5111442;28;20233;-76
2024/01/07 04:30:14;;;;;;;10.57;5.80;;;;;;;;;;5111435;28;20274;-76
2024/01/07 04:32:41;;;;;;;10.60;5.90;;;;;;;;;;5111004;28;20194;-76
2024/01/07 04:35:09;;;;;;;9.57;5.37;;;;;;;;;;5111074;28;20644;-76
2024/01/07 04:37:36;;;;;;;9.00;5.53;;;;;;;;;;5110923;28;20297;-76
2024/01/07 04:40:03;;;;;;;9.03;4.73;;;;;;;;;;5111343;28;20313;-76
2024/01/07 04:42:32;;;;;;;7.67;5.10;;;;;;;;;;5111301;28;20235;-76
2024/01/07 04:44:59;;;;;;;9.83;5.57;;;;;;;;;;5110683;28;20198;-76
2024/01/07 04:47:30;;;;;;;8.17;4.77;;;;;;;;;;5111314;28;20608;-76
2024/01/07 04:49:58;;;;;;;8.27;5.00;;;;;;;;;;5110376;28;20222;-77
2024/01/07 04:52:25;;;;;;;7.13;4.53;;;;;;;;;;5110626;28;20293;-77
2024/01/07 04:54:52;;;;;;;9.37;4.80;;;;;;;;;;5111055;28;20765;-76
2024/01/07 04:57:19;;;;;;;8.33;4.80;;;;;;;;;;5110829;28;20199;-76
2024/01/07 04:59:48;;;;;;;9.00;4.93;;;;;;;;;;5110499;28;20261;-75
2024/01/07 05:02:15;;;;;;;7.87;5.13;;;;;;;;;;5112071;28;20225;-76
2024/01/07 05:04:43;;;;;;;8.97;5.30;;;;;;;;;;5114781;28;20215;-75
2024/01/07 05:07:10;;;;;;;11.93;5.47;;;;;;;;;;5115036;28;20229;-76
2024/01/07 05:09:37;;;;;;;9.33;4.80;;;;;;;;;;5114653;28;20221;-75
2024/01/07 05:12:05;;;;;;;9.77;5.50;;;;;;;;;;5114711;28;20284;-76
2024/01/07 05:14:32;;;;;;;10.13;5.50;;;;;;;;;;5114657;28;20936;-76
2024/01/07 05:17:00;;;;;;;8.33;5.43;;;;;;;;;;5114998;28;20194;-76
2024/01/07 05:19:27;;;;;;;11.70;6.23;;;;;;;;;;5114178;28;20285;-76
2024/01/07 05:21:55;;;;;;;8.17;5.10;;;;;;;;;;5114198;28;20348;-76
2024/01/07 05:24:22;;;;;;;9.93;6.07;;;;;;;;;;5114266;28;20740;-75
2024/01/07 05:26:49;;;;;;;10.83;5.77;;;;;;;;;;5114322;28;20229;-74
2024/01/07 05:29:16;;;;;;;9.50;5.80;;;;;;;;;;5114165;28;20318;-75
2024/01/07 05:31:44;;;;;;;12.10;6.17;;;;;;;;;;5114230;28;20199;-75
2024/01/07 05:34:12;;;;;;;10.20;6.10;;;;;;;;;;5114219;28;20234;-75
2024/01/07 05:36:39;;;;;;;8.13;5.87;;;;;;;;;;5113388;28;20200;-75
2024/01/07 05:39:07;;;;;;;9.77;6.20;;;;;;;;;;5113953;28;20236;-77
2024/01/07 05:41:34;;;;;;;9.17;5.80;;;;;;;;;;5113994;28;20229;-76
2024/01/07 05:44:01;;;;;;;12.17;5.83;;;;;;;;;;5113706;28;20281;-74
2024/01/07 05:46:28;;;;;;;10.50;5.87;;;;;;;;;;5114006;28;20277;-75
2024/01/07 05:48:56;;;;;;;12.17;6.37;;;;;;;;;;5113533;28;20251;-75
2024/01/07 05:51:24;;;;;;;12.17;5.90;;;;;;;;;;5113458;28;20201;-75
2024/01/07 05:53:51;;;;;;;9.23;5.77;;;;;;;;;;5113789;28;20246;-75
2024/01/07 05:56:18;;;;;;;9.63;5.87;;;;;;;;;;5113734;28;20647;-75
2024/01/07 05:58:46;;;;;;;9.07;5.83;;;;;;;;;;5113637;28;20202;-75
2024/01/07 06:01:19;;;;;;;9.63;5.57;;;;;;;;;;5113232;28;20615;-75
2024/01/07 06:03:47;;;;;;;9.20;5.97;;;;;;;;;;5113298;28;20220;-75
2024/01/07 06:06:14;;;;;;;8.03;5.07;;;;;;;;;;5113519;28;20280;-78
2024/01/07 06:08:43;;;;;;;9.10;5.70;;;;;;;;;;5113808;28;20695;-75
2024/01/07 06:11:12;;;;;;;9.93;5.43;;;;;;;;;;5113985;28;20202;-74
2024/01/07 06:13:39;;;;;;;11.20;5.60;;;;;;;;;;5112451;28;20199;-75
2024/01/07 06:16:06;;;;;;;8.53;5.63;;;;;;;;;;5113220;28;20286;-75
2024/01/07 06:18:33;;;;;;;9.30;5.70;;;;;;;;;;5113522;28;20255;-77
2024/01/07 06:21:01;;;;;;;8.60;5.80;;;;;;;;;;5113397;28;20312;-77
2024/01/07 06:23:28;;;;;;;10.77;5.93;;;;;;;;;;5113293;28;20199;-77
2024/01/07 06:25:56;;;;;;;11.10;5.57;;;;;;;;;;5113189;28;20213;-77
2024/01/07 06:28:23;;;;;;;9.10;5.83;;;;;;;;;;5112997;28;20282;-77
2024/01/07 06:30:50;;;;;;;9.40;5.77;;;;;;;;;;5113293;28;20285;-77
2024/01/07 06:33:18;;;;;;;8.40;5.93;;;;;;;;;;5112607;28;20292;-77
2024/01/07 06:35:45;;;;;;;9.43;5.43;;;;;;;;;;5112988;28;20328;-78
2024/01/07 06:38:12;;;;;;;8.67;6.27;;;;;;;;;;5113086;28;20282;-77
2024/01/07 06:40:39;;;;;;;11.40;6.00;;;;;;;;;;5113379;28;20420;-76
2024/01/07 06:43:08;;;;;;;11.07;6.43;;;;;;;;;;5112635;28;20774;-78
2024/01/07 06:45:35;;;;;;;8.43;5.50;;;;;;;;;;5112564;28;20218;-77
2024/01/07 06:48:02;;;;;;;10.33;5.87;;;;;;;;;;5112630;28;20286;-77
2024/01/07 06:50:29;;;;;;;9.10;6.20;;;;;;;;;;5112585;28;20570;-78
2024/01/07 06:52:56;;;;;;;8.87;6.00;;;;;;;;;;5113201;28;20749;-77
2024/01/07 06:55:24;;;;;;;9.73;5.93;;;;;;;;;;5112583;28;20288;-78
2024/01/07 06:57:51;;;;;;;10.03;6.53;;;;;;;;;;5112867;28;20238;-77
2024/01/07 07:00:20;;;;;;;11.27;6.17;;;;;;;;;;5112251;28;20269;-78
2024/01/07 07:02:47;;;;;;;10.60;5.50;;;;;;;;;;5112025;28;20315;-77
2024/01/07 07:05:14;;;;;;;7.17;5.43;;;;;;;;;;5112987;28;20201;-76
2024/01/07 07:07:41;;;;;;;11.23;5.40;;;;;;;;;;5112341;28;20223;-77
2024/01/07 07:10:09;;;;;;;8.00;5.43;;;;;;;;;;5112450;28;20289;-77
2024/01/07 07:12:36;;;;;;;8.60;5.20;;;;;;;;;;5112316;28;20292;-77
2024/01/07 07:15:03;;;;;;;9.67;5.20;;;;;;;;;;5111941;28;20401;-77
2024/01/07 07:17:31;;;;;;;7.50;5.57;;;;;;;;;;5111777;28;20645;-76
2024/01/07 07:19:59;;;;;;;10.20;5.40;;;;;;;;;;5111913;28;20297;-77
2024/01/07 07:22:26;;;;;;;7.83;4.90;;;;;;;;;;5111819;28;20936;-77
2024/01/07 07:24:53;;;;;;;8.70;4.93;;;;;;;;;;5112158;28;20229;-77
2024/01/07 07:27:20;;;;;;;7.30;4.97;;;;;;;;;;5111916;28;20259;-77
2024/01/07 07:29:47;;;;;;;8.07;5.03;;;;;;;;;;5111993;28;20289;-77
2024/01/07 07:32:14;;;;;;;7.73;5.20;;;;;;;;;;5111557;28;20224;-77
2024/01/07 07:34:43;;;;;;;8.53;4.87;;;;;;;;;;5111733;28;20227;-77
2024/01/07 07:37:10;;;;;;;6.80;5.13;;;;;;;;;;5111941;28;20295;-77
2024/01/07 07:39:38;;;;;;;9.13;5.30;;;;;;;;;;5111915;28;20203;-77
2024/01/07 07:42:05;;;;;;;8.33;5.73;;;;;;;;;;5111417;28;20336;-78
2024/01/07 07:44:32;;;;;;;7.40;5.40;;;;;;;;;;5111790;28;20282;-76
2024/01/07 07:46:59;;;;;;;8.53;5.33;;;;;;;;;;5111328;28;20208;-77
2024/01/07 07:49:26;;;;;;;7.93;5.03;;;;;;;;;;5111458;28;20688;-77
2024/01/07 07:51:55;;;;;;;15.37;10.43;;;;;;;;;;5111503;28;20659;-77
2024/01/07 07:54:22;;;;;;;14.03;10.47;;;;;;;;;;5111390;28;20217;-77
2024/01/07 07:56:50;;;;;;;15.77;11.10;;;;;;;;;;5111204;28;20631;-76
2024/01/07 07:59:17;;;;;;;15.77;11.43;;;;;;;;;;5111698;28;20327;-77
2024/01/07 08:01:44;;;;;;;14.17;10.00;;;;;;;;;;5111032;28;20238;-77
2024/01/07 08:04:11;;;;;;;14.33;8.97;;;;;;;;;;5111349;28;20661;-77
2024/01/07 08:06:38;;;;;;;13.33;8.60;;;;;;;;;;5111450;28;20296;-76
2024/01/07 08:09:07;;;;;;;12.47;8.53;;;;;;;;;;5111259;28;20291;-76
2024/01/07 08:11:34;;;;;;;13.30;7.90;;;;;;;;;;5111491;28;20676;-77
2024/01/07 08:14:01;;;;;;;10.97;7.50;;;;;;;;;;5111328;28;20287;-77
2024/01/07 08:16:29;;;;;;;17.10;9.20;;;;;;;;;;5111042;28;20305;-75
2024/01/07 08:18:57;;;;;;;17.13;9.93;;;;;;;;;;5112250;28;20291;-76
2024/01/07 08:21:24;;;;;;;14.37;9.17;;;;;;;;;;5111324;28;20265;-76
2024/01/07 08:23:52;;;;;;;10.77;7.87;;;;;;;;;;5111247;28;20198;-76
2024/01/07 08:26:21;;;;;;;12.17;7.27;;;;;;;;;;5111532;28;20205;-77
2024/01/07 08:28:48;;;;;;;12.13;7.37;;;;;;;;;;5111164;28;20292;-76
2024/01/07 08:31:15;;;;;;;11.43;7.03;;;;;;;;;;5111746;28;20296;-76
2024/01/07 08:33:43;;;;;;;12.43;6.57;;;;;;;;;;5111387;28;20203;-76
2024/01/07 08:36:10;;;;;;;8.57;6.17;;;;;;;;;;5111277;28;20622;-76
2024/01/07 08:38:37;;;;;;;11.00;6.97;;;;;;;;;;5114661;28;20285;-77
2024/01/07 08:41:04;;;;;;;10.07;6.00;;;;;;;;;;5115061;28;20227;-77
2024/01/07 08:43:33;;;;;;;11.60;6.40;;;;;;;;;;5114954;28;20250;-77
2024/01/07 08:46:00;;;;;;;8.70;5.70;;;;;;;;;;5115006;28;20288;-77
2024/01/07 08:48:27;;;;;;;10.73;6.10;;;;;;;;;;5114783;28;20235;-77
2024/01/07 08:50:54;;;;;;;10.93;6.00;;;;;;;;;;5115268;28;20655;-77
2024/01/07 08:53:22;;;;;;;8.47;5.03;;;;;;;;;;5114877;28;21097;-77
2024/01/07 08:55:49;;;;;;;8.27;5.37;;;;;;;;;;5115227;28;20614;-76
2024/01/07 08:58:17;;;;;;;9.30;5.50;;;;;;;;;;5114589;28;20794;-77
2024/01/07 09:00:46;;;;;;;10.07;5.87;;;;;;;;;;5114452;28;20237;-77
2024/01/07 09:03:13;;;;;;;11.40;5.97;;;;;;;;;;5114862;28;20811;-76
2024/01/07 09:05:40;;;;;;;10.00;6.30;;;;;;;;;;5114575;28;20255;-76
2024/01/07 09:08:09;;;;;;;9.33;6.33;;;;;;;;;;5113741;28;20292;-77
2024/01/07 09:10:36;;;;;;;10.87;6.77;;;;;;;;;;5114876;28;20193;-77
2024/01/07 09:13:04;;;;;;;8.23;6.20;;;;;;;;;;5114254;28;20662;-76
2024/01/07 09:15:31;;;;;;;8.33;5.70;;;;;;;;;;5114589;28;20220;-76
2024/01/07 09:18:00;;;;;;;9.93;6.03;;;;;;;;;;5114366;28;20602;-76
2024/01/07 09:20:27;;;;;;;13.23;6.67;;;;;;;;;;5114871;28;20285;-77
2024/01/07 09:22:54;;;;;;;8.87;6.73;;;;;;;;;;5114616;28;20316;-77
2024/01/07 09:25:21;;;;;;;11.43;6.87;;;;;;;;;;5113995;28;20277;-76
2024/01/07 09:27:48;;;;;;;9.27;6.03;;;;;;;;;;5114227;28;20641;-77
2024/01/07 09:30:17;;;;;;;9.03;6.03;;;;;;;;;;5114505;28;20305;-77
2024/01/07 09:32:44;;;;;;;10.90;7.33;;;;;;;;;;5114590;28;20190;-77
2024/01/07 09:35:13;;;;;;;12.17;7.97;;;;;;;;;;5113861;28;20628;-76
2024/01/07 09:37:40;;;;;;;9.90;6.80;;;;;;;;;;5114043;28;20229;-77
2024/01/07 09:40:08;;;;;;;11.40;6.83;;;;;;;;;;5113896;28;20217;-77
2024/01/07 09:42:35;;;;;;;10.13;6.40;;;;;;;;;;5114279;28;20252;-76
2024/01/07 09:45:04;;;;;;;10.00;6.50;;;;;;;;;;5113809;28;20194;-76
2024/01/07 09:47:31;;;;;;;8.83;5.30;;;;;;;;;;5114415;28;20198;-77
2024/01/07 09:49:58;;;;;;;10.50;5.87;;;;;;;;;;5113446;28;20252;-77
2024/01/07 09:52:27;;;;;;;8.27;6.00;;;;;;;;;;5113954;28;20229;-77
2024/01/07 09:55:01;;;;;;;15.53;10.63;;;;;;;;;;5114038;28;20194;-77
2024/01/07 09:57:28;;;;;;;9.17;6.50;;;;;;;;;;5111133;28;20194;-76
2024/01/07 09:59:55;;;;;;;7.37;6.10;;;;;;;;;;5110551;27;20239;-76
2024/01/07 10:02:23;;;;;;;9.80;6.30;;;;;;;;;;5121867;27;20223;-78
2024/01/07 10:04:50;;;;;;;7.17;5.40;;;;;;;;;;5132165;27;20225;-76
2024/01/07 10:07:18;;;;;;;7.67;5.87;;;;;;;;;;5110541;27;20208;-77
2024/01/07 10:09:49;;;;;;;4.90;4.27;;;;;;;;;;5128349;27;20554;-77
2024/01/07 10:12:17;;;;;;;7.43;5.30;;;;;;;;;;5126692;27;20294;-78
2024/01/07 10:14:44;;;;;;;6.77;5.23;;;;;;;;;;5124790;27;20295;-78
2024/01/07 10:17:17;;;;;;;9.43;3.87;;;;;;;;;;5115443;27;20202;-76
2024/01/07 10:19:46;;;;;;;21.63;11.00;;;;;;;;;;5108251;27;20225;-77
2024/01/07 10:22:13;;;;;;;22.23;16.27;;;;;;;;;;5127256;27;20239;-77
2024/01/07 10:24:41;;;;;;;13.20;9.03;;;;;;;;;;5133223;27;20299;-78
2024/01/07 10:27:10;;;;;;;6.03;3.80;;;;;;;;;;5126225;27;20279;-76
2024/01/07 10:29:38;;;;;;;18.13;11.37;;;;;;;;;;5119560;27;20584;-77
2024/01/07 10:32:07;;;;;;;23.03;15.90;;;;;;;;;;5103240;27;20202;-77
2024/01/07 10:34:35;;;;;;;10.03;3.30;;;;;;;;;;5128690;27;20571;-76
2024/01/07 10:37:04;;;;;;;11.60;6.53;;;;;;;;;;5110557;28;20292;-77
2024/01/07 10:39:32;;;;;;;7.13;3.57;;;;;;;;;;5113024;28;20194;-77
2024/01/07 10:41:59;;;;;;;8.63;5.83;;;;;;;;;;5109108;27;20312;-79
2024/01/07 10:44:28;;;;;;;5.60;2.60;;;;;;;;;;5112249;28;20276;-78
2024/01/07 10:46:56;;;;;;;7.40;3.50;;;;;;;;;;5112447;28;20301;-78
2024/01/07 10:49:25;;;;;;;21.37;14.60;;;;;;;;;;5112671;28;20194;-78
2024/01/07 10:52:05;;;;;;;7.90;4.13;;;;;;;;;;5112329;28;20236;-78
2024/01/07 10:54:34;;;;;;;7.23;5.60;;;;;;;;;;5112144;28;20197;-78
2024/01/07 10:57:03;;;;;;;6.77;2.90;;;;;;;;;;5113434;28;20285;-77
2024/01/07 10:59:33;;;;;;;8.40;3.80;;;;;;;;;;5112325;28;20237;-77
2024/01/07 11:02:03;;;;;;;9.03;4.50;;;;;;;;;;5112500;28;20321;-77
2024/01/07 11:04:33;;;;;;;5.70;2.40;;;;;;;;;;5112677;28;20225;-77
2024/01/07 11:07:02;;;;;;;7.43;2.20;;;;;;;;;;5112761;28;20212;-77
2024/01/07 11:09:41;;;;;;;6.47;3.70;;;;;;;;;;5112568;28;20209;-78
2024/01/07 11:12:08;;;;;;;6.07;2.57;;;;;;;;;;5112660;28;20550;-77
2024/01/07 11:14:39;;;;;;;7.00;3.10;;;;;;;;;;5112698;28;20277;-77
2024/01/07 11:17:06;;;;;;;3.93;2.23;;;;;;;;;;5112519;28;20194;-77
2024/01/07 11:19:33;;;;;;;11.53;7.03;;;;;;;;;;5112726;28;20198;-76
2024/01/07 11:22:19;;;;;;;4.60;2.23;;;;;;;;;;5112938;28;20289;-78
2024/01/07 11:24:46;;;;;;;5.47;3.83;;;;;;;;;;5112513;28;20195;-78
2024/01/07 11:27:13;;;;;;;6.20;2.90;;;;;;;;;;5112479;28;20255;-77
2024/01/07 11:29:42;;;;;;;7.47;2.33;;;;;;;;;;5112380;28;20277;-77
2024/01/07 11:32:09;;;;;;;4.70;2.30;;;;;;;;;;5112005;28;20232;-78
2024/01/07 11:34:40;;;;;;;6.33;2.27;;;;;;;;;;5112568;28;20293;-78
2024/01/07 11:37:09;;;;;;;3.23;2.23;;;;;;;;;;5111635;28;20201;-77
2024/01/07 11:39:36;;;;;;;5.53;2.30;;;;;;;;;;5112062;28;20740;-76
2024/01/07 11:42:05;;;;;;;7.27;1.80;;;;;;;;;;5112228;28;20251;-77
2024/01/07 11:44:34;;;;;;;7.47;1.67;;;;;;;;;;5112547;28;20284;-78
2024/01/07 11:47:03;;;;;;;3.50;1.40;;;;;;;;;;5112005;28;20236;-79
2024/01/07 11:49:30;;;;;;;5.00;1.47;;;;;;;;;;5112280;28;20221;-77
2024/01/07 11:51:57;;;;;;;4.23;1.70;;;;;;;;;;5111802;28;20212;-77
2024/01/07 11:54:25;;;;;;;3.47;1.40;;;;;;;;;;5111951;28;20296;-77
2024/01/07 11:56:52;;;;;;;4.70;1.67;;;;;;;;;;5112226;28;20639;-78
2024/01/07 11:59:19;;;;;;;4.63;1.40;;;;;;;;;;5112009;28;20312;-79
2024/01/07 12:01:46;;;;;;;4.37;1.60;;;;;;;;;;5111665;28;20225;-79
2024/01/07 12:04:15;;;;;;;3.63;1.50;;;;;;;;;;5112320;28;20221;-78
2024/01/07 12:06:42;;;;;;;4.60;1.47;;;;;;;;;;5111664;28;20224;-78
2024/01/07 12:09:09;;;;;;;5.37;1.47;;;;;;;;;;5111594;28;20717;-78
2024/01/07 12:11:37;;;;;;;5.20;1.30;;;;;;;;;;5111934;28;20190;-78
2024/01/07 12:14:04;;;;;;;7.70;1.23;;;;;;;;;;5115950;28;20216;-77
2024/01/07 12:16:32;;;;;;;3.23;1.20;;;;;;;;;;5116446;28;20232;-78
2024/01/07 12:18:59;;;;;;;2.93;1.30;;;;;;;;;;5116231;28;20201;-78
2024/01/07 12:21:29;;;;;;;4.47;1.17;;;;;;;;;;5115553;28;20224;-77
2024/01/07 12:23:57;;;;;;;5.80;1.23;;;;;;;;;;5115954;28;20233;-77
2024/01/07 12:26:27;;;;;;;2.77;1.10;;;;;;;;;;5115972;28;20649;-80
2024/01/07 12:28:55;;;;;;;6.03;1.10;;;;;;;;;;5115887;28;20280;-78
2024/01/07 12:31:22;;;;;;;2.63;1.10;;;;;;;;;;5116595;28;20271;-79
2024/01/07 12:33:49;;;;;;;2.87;1.07;;;;;;;;;;5115247;28;20717;-78
2024/01/07 12:36:16;;;;;;;4.67;1.27;;;;;;;;;;5114804;28;20636;-79
2024/01/07 12:38:45;;;;;;;3.77;1.20;;;;;;;;;;5115690;28;20699;-79
2024/01/07 12:41:13;;;;;;;3.60;1.23;;;;;;;;;;5115462;28;20194;-79
2024/01/07 12:43:40;;;;;;;4.40;1.33;;;;;;;;;;5115405;28;20279;-79
2024/01/07 12:46:07;;;;;;;5.47;1.20;;;;;;;;;;5115506;28;20197;-78
2024/01/07 12:48:35;;;;;;;3.20;1.27;;;;;;;;;;5115671;28;20201;-78
2024/01/07 12:51:02;;;;;;;3.50;1.00;;;;;;;;;;5115299;28;20599;-79
2024/01/07 12:53:29;;;;;;;4.43;1.00;;;;;;;;;;5115218;28;20196;-78
2024/01/07 12:55:58;;;;;;;5.10;1.27;;;;;;;;;;5115343;28;20194;-79
2024/01/07 12:58:25;;;;;;;6.13;1.40;;;;;;;;;;5114912;28;20289;-78
2024/01/07 13:00:52;;;;;;;5.50;1.40;;;;;;;;;;5115084;28;20788;-79
2024/01/07 13:03:20;;;;;;;3.13;1.27;;;;;;;;;;5115279;28;20260;-78
2024/01/07 13:05:48;;;;;;;4.20;1.30;;;;;;;;;;5114907;28;20281;-78
2024/01/07 13:08:15;;;;;;;4.67;1.50;;;;;;;;;;5115105;28;20201;-79
2024/01/07 13:10:43;;;;;;;6.90;1.60;;;;;;;;;;5115082;28;20189;-79
2024/01/07 13:13:12;;;;;;;2.97;1.27;;;;;;;;;;5113744;28;20198;-78
2024/01/07 13:15:40;;;;;;;3.97;1.20;;;;;;;;;;5115159;28;20190;-79
2024/01/07 13:18:08;;;;;;;3.97;1.20;;;;;;;;;;5114667;28;20201;-78
2024/01/07 13:20:35;;;;;;;3.63;1.53;;;;;;;;;;5114453;28;20931;-79
2024/01/07 13:23:04;;;;;;;3.37;1.30;;;;;;;;;;5114185;28;20226;-78
2024/01/07 13:25:31;;;;;;;3.60;1.20;;;;;;;;;;5114402;28;20670;-78
2024/01/07 13:27:59;;;;;;;3.07;1.17;;;;;;;;;;5114932;28;20264;-79
2024/01/07 13:30:27;;;;;;;2.67;1.37;;;;;;;;;;5114498;28;20226;-78
2024/01/07 13:32:56;;;;;;;9.10;2.40;;;;;;;;;;5114443;28;20233;-79
2024/01/07 13:35:24;;;;;;;6.40;1.60;;;;;;;;;;5114338;28;20209;-79
2024/01/07 13:37:52;;;;;;;3.57;1.63;;;;;;;;;;5114578;28;20198;-78
2024/01/07 13:40:19;;;;;;;2.87;1.30;;;;;;;;;;5114365;28;20201;-79
2024/01/07 13:42:50;;;;;;;3.70;1.17;;;;;;;;;;5114475;28;20225;-78
2024/01/07 13:45:19;;;;;;;3.07;1.27;;;;;;;;;;5114277;28;20682;-78
2024/01/07 13:47:48;;;;;;;3.87;1.00;;;;;;;;;;5114262;28;20572;-79
2024/01/07 13:50:15;;;;;;;4.53;1.10;;;;;;;;;;5113958;28;20200;-79
2024/01/07 13:52:42;;;;;;;5.20;1.50;;;;;;;;;;5114592;28;20229;-79
2024/01/07 13:55:10;;;;;;;2.37;1.17;;;;;;;;;;5114112;28;20229;-78
2024/01/07 13:57:38;;;;;;;2.87;1.10;;;;;;;;;;5113800;28;20229;-78
2024/01/07 14:00:08;;;;;;;2.30;1.00;;;;;;;;;;5114302;28;20252;-79
2024/01/07 14:02:37;;;;;;;3.57;1.20;;;;;;;;;;5113467;28;20201;-78
2024/01/07 14:05:08;;;;;;;4.00;1.07;;;;;;;;;;5114225;28;20201;-77
2024/01/07 14:07:35;;;;;;;3.07;1.00;;;;;;;;;;5114060;28;20198;-79
2024/01/07 14:10:04;;;;;;;3.10;1.27;;;;;;;;;;5113612;28;20296;-78
2024/01/07 14:12:31;;;;;;;3.77;1.20;;;;;;;;;;5113850;28;20234;-78
2024/01/07 14:14:58;;;;;;;3.40;1.20;;;;;;;;;;5113765;28;20204;-78
2024/01/07 14:17:26;;;;;;;2.73;1.13;;;;;;;;;;5113412;28;20277;-77
2024/01/07 14:19:53;;;;;;;2.70;1.20;;;;;;;;;;5113565;28;20198;-79
2024/01/07 14:22:22;;;;;;;4.23;1.17;;;;;;;;;;5113624;28;20201;-77
2024/01/07 14:24:49;;;;;;;2.27;0.90;;;;;;;;;;5113432;28;20261;-77
2024/01/07 14:27:16;;;;;;;3.53;1.03;;;;;;;;;;5113700;28;20193;-78
2024/01/07 14:29:44;;;;;;;3.33;1.17;;;;;;;;;;5113955;28;20292;-78
2024/01/07 14:32:11;;;;;;;8.20;1.37;;;;;;;;;;5113024;28;20190;-79
2024/01/07 14:34:41;;;;;;;3.63;1.20;;;;;;;;;;5112368;28;20281;-78
2024/01/07 14:37:09;;;;;;;5.97;1.37;;;;;;;;;;5113154;28;20197;-79
2024/01/07 14:39:37;;;;;;;3.17;1.13;;;;;;;;;;5113258;28;20196;-78
2024/01/07 14:42:04;;;;;;;3.43;1.30;;;;;;;;;;5113176;28;20280;-79